Time;durP1;ratioP1;P1;durP2;ratioP2;P2;SDS_P1;SDS_P2;PMS_P1;PMS_P2;Temp;Humidity;BMP_temperature;BMP_pressure;BME280_temperature;BME280_humidity;BME280_pressure;Samples;Min_cycle;Max_cycle;Signal;HPM_P1;HPM_P2
2023/01/27 00:00:34;;;;;;;17.17;9.10;;;0.80;99.90;;;;;;5152600;27;20232;-71
2023/01/27 00:03:01;;;;;;;18.43;9.73;;;0.80;99.90;;;;;;5152323;27;20243;-71
2023/01/27 00:05:28;;;;;;;17.57;8.47;;;0.80;99.90;;;;;;5135571;27;20679;-72
2023/01/27 00:07:57;;;;;;;15.63;8.97;;;0.80;99.90;;;;;;5150766;27;20291;-72
2023/01/27 00:10:25;;;;;;;17.70;9.47;;;0.90;99.90;;;;;;5152666;27;20209;-72
2023/01/27 00:15:39;;;;;;;18.13;9.60;;;0.90;99.90;;;;;;5152273;27;20248;-72
2023/01/27 00:18:06;;;;;;;15.67;8.63;;;0.90;99.90;;;;;;5148962;27;20742;-73
2023/01/27 00:26:06;;;;;;;21.13;9.73;;;0.90;99.90;;;;;;5134566;27;20767;-74
2023/01/27 00:28:34;;;;;;;18.83;9.80;;;0.90;99.90;;;;;;5152169;27;20204;-72
2023/01/27 00:31:02;;;;;;;21.70;9.73;;;0.90;99.90;;;;;;5151613;27;20325;-73
2023/01/27 00:33:28;;;;;;;20.93;10.27;;;0.90;99.90;;;;;;5139169;27;20296;-74
2023/01/27 00:35:59;;;;;;;18.37;9.43;;;0.90;99.90;;;;;;5131313;27;20663;-74
2023/01/27 00:38:27;;;;;;;20.97;10.23;;;0.90;99.90;;;;;;5131535;27;20312;-74
2023/01/27 00:43:40;;;;;;;20.93;9.97;;;0.90;99.90;;;;;;5133740;27;20196;-74
2023/01/27 00:46:07;;;;;;;18.10;9.33;;;1.00;99.90;;;;;;5151951;27;20308;-74
2023/01/27 00:48:35;;;;;;;21.90;10.00;;;0.90;99.90;;;;;;5144537;27;20304;-74
2023/01/27 00:51:02;;;;;;;19.17;9.77;;;0.90;99.90;;;;;;5130989;27;20297;-74
2023/01/27 00:53:29;;;;;;;17.33;8.80;;;0.90;99.90;;;;;;5139718;27;20683;-73
2023/01/27 00:55:57;;;;;;;17.80;9.10;;;0.90;99.90;;;;;;5148756;27;20249;-73
2023/01/27 00:58:24;;;;;;;16.37;8.50;;;0.90;99.90;;;;;;5130531;27;20410;-74
2023/01/27 01:00:54;;;;;;;18.37;9.07;;;0.90;99.90;;;;;;5130636;27;20619;-74
2023/01/27 01:03:21;;;;;;;17.23;8.80;;;0.90;99.90;;;;;;5142563;27;20730;-74
2023/01/27 01:05:48;;;;;;;20.57;9.83;;;0.90;99.90;;;;;;5151785;27;20279;-73
2023/01/27 01:08:15;;;;;;;19.10;9.57;;;0.90;99.90;;;;;;5151953;27;20203;-74
2023/01/27 01:10:42;;;;;;;15.93;9.03;;;1.00;99.90;;;;;;5142276;27;20292;-74
2023/01/27 01:13:10;;;;;;;15.80;8.17;;;1.00;99.90;;;;;;5130947;27;20289;-74
2023/01/27 01:15:37;;;;;;;17.77;8.67;;;1.00;99.90;;;;;;5130604;27;20682;-73
2023/01/27 01:18:06;;;;;;;17.47;9.40;;;1.00;99.90;;;;;;5168675;27;20274;-73
2023/01/27 01:20:37;;;;;;;15.40;8.60;;;1.00;99.90;;;;;;5151047;27;20236;-74
2023/01/27 01:23:04;;;;;;;20.30;9.67;;;1.00;99.90;;;;;;5150871;27;20208;-72
2023/01/27 01:25:31;;;;;;;14.83;8.23;;;1.00;99.90;;;;;;5146710;27;20296;-72
2023/01/27 01:27:58;;;;;;;17.67;9.00;;;1.00;99.90;;;;;;5160028;27;20236;-72
2023/01/27 01:30:26;;;;;;;17.03;9.43;;;1.00;99.90;;;;;;5152896;27;20296;-72
2023/01/27 01:32:53;;;;;;;18.90;8.93;;;1.00;99.90;;;;;;5150473;27;20288;-72
2023/01/27 01:35:23;;;;;;;17.53;8.73;;;1.00;99.90;;;;;;5150962;27;20304;-72
2023/01/27 01:37:50;;;;;;;20.00;8.83;;;1.00;99.90;;;;;;5149739;27;20722;-72
2023/01/27 01:40:18;;;;;;;18.40;8.67;;;1.00;99.90;;;;;;5150918;27;20207;-71
2023/01/27 01:42:56;;;;;;;18.57;8.77;;;1.00;99.90;;;;;;5149806;27;20284;-72
2023/01/27 01:45:54;;;;;;;17.00;9.07;;;1.00;99.90;;;;;;5132429;27;20221;-72
2023/01/27 01:48:29;;;;;;;20.17;8.97;;;1.00;99.90;;;;;;5129488;27;20205;-72
2023/01/27 01:51:01;;;;;;;19.33;8.87;;;1.00;99.90;;;;;;5129948;27;20378;-72
2023/01/27 01:53:35;;;;;;;15.30;7.90;;;1.00;99.90;;;;;;5129879;27;20280;-72
2023/01/27 01:56:08;;;;;;;17.60;9.27;;;1.00;99.90;;;;;;5129591;27;20604;-72
2023/01/27 01:58:35;;;;;;;16.27;8.50;;;1.00;99.90;;;;;;5142272;27;20327;-72
2023/01/27 02:01:05;;;;;;;16.20;7.80;;;1.00;99.90;;;;;;5130948;27;20243;-72
2023/01/27 02:03:33;;;;;;;16.37;8.30;;;1.00;99.90;;;;;;5129600;27;20630;-72
2023/01/27 02:06:02;;;;;;;12.10;7.40;;;1.00;99.90;;;;;;5129989;27;20241;-72
2023/01/27 02:08:34;;;;;;;12.17;6.90;;;1.00;99.90;;;;;;5129868;27;20296;-74
2023/01/27 02:11:01;;;;;;;9.37;6.47;;;1.00;99.90;;;;;;5129669;27;20194;-72
2023/01/27 02:13:28;;;;;;;11.77;7.30;;;1.00;99.90;;;;;;5129891;27;20308;-73
2023/01/27 02:15:55;;;;;;;11.33;7.60;;;1.00;99.90;;;;;;5134060;27;20288;-72
2023/01/27 02:18:22;;;;;;;10.60;6.87;;;1.00;99.90;;;;;;5165026;27;20717;-70
2023/01/27 02:20:51;;;;;;;9.53;6.23;;;1.00;99.90;;;;;;5133752;27;20292;-70
2023/01/27 02:23:36;;;;;;;10.33;6.80;;;1.00;99.90;;;;;;5155053;27;20397;-70
2023/01/27 02:26:08;;;;;;;10.33;6.57;;;1.00;99.90;;;;;;5129042;27;20293;-70
2023/01/27 02:28:35;;;;;;;13.60;7.40;;;1.00;99.90;;;;;;5129074;27;20296;-72
2023/01/27 02:31:02;;;;;;;10.13;6.97;;;1.00;99.90;;;;;;5129047;27;20671;-72
2023/01/27 02:33:29;;;;;;;12.10;7.20;;;1.00;99.90;;;;;;5129367;27;20241;-72
2023/01/27 02:36:02;;;;;;;12.90;7.00;;;1.00;99.90;;;;;;5129547;27;20284;-72
2023/01/27 02:38:36;;;;;;;11.33;6.77;;;1.10;99.90;;;;;;5129189;27;20225;-72
2023/01/27 02:41:09;;;;;;;12.23;7.20;;;1.00;99.90;;;;;;5155633;27;20192;-72
2023/01/27 02:43:36;;;;;;;10.70;6.63;;;1.10;99.90;;;;;;5170597;27;20200;-73
2023/01/27 02:46:03;;;;;;;11.73;7.23;;;1.10;99.90;;;;;;5152353;27;20748;-72
2023/01/27 02:48:30;;;;;;;11.10;6.83;;;1.10;99.90;;;;;;5163162;27;20679;-73
2023/01/27 02:50:57;;;;;;;12.03;7.17;;;1.10;99.90;;;;;;5149423;27;20288;-72
2023/01/27 02:53:24;;;;;;;12.33;6.70;;;1.00;99.90;;;;;;5149841;27;20264;-72
2023/01/27 02:55:51;;;;;;;13.40;7.23;;;1.10;99.90;;;;;;5139508;27;20276;-74
2023/01/27 02:58:19;;;;;;;12.47;7.60;;;1.10;99.90;;;;;;5128633;28;20780;-74
2023/01/27 03:00:46;;;;;;;10.80;7.27;;;1.10;99.90;;;;;;5128907;28;20300;-74
2023/01/27 03:03:13;;;;;;;13.47;7.37;;;1.10;99.90;;;;;;5129000;28;20209;-74
2023/01/27 03:05:40;;;;;;;12.60;7.30;;;1.10;99.90;;;;;;5128929;27;20295;-74
2023/01/27 03:08:07;;;;;;;13.43;7.03;;;1.20;99.90;;;;;;5128926;28;20220;-74
2023/01/27 03:10:34;;;;;;;11.87;7.47;;;1.10;99.90;;;;;;5128908;28;20301;-74
2023/01/27 03:13:01;;;;;;;13.60;7.70;;;1.10;99.90;;;;;;5128658;28;20301;-73
2023/01/27 03:18:15;;;;;;;11.27;7.23;;;1.10;99.90;;;;;;5128419;27;20291;-71
2023/01/27 03:20:44;;;;;;;12.67;7.47;;;1.10;99.90;;;;;;5128840;28;20202;-71
2023/01/27 03:23:11;;;;;;;13.50;7.47;;;1.10;99.90;;;;;;5143069;27;20737;-72
2023/01/27 03:25:41;;;;;;;11.10;7.13;;;1.10;99.90;;;;;;5148962;27;20322;-72
2023/01/27 03:28:08;;;;;;;9.07;6.10;;;1.20;99.90;;;;;;5143732;27;20299;-72
2023/01/27 03:30:37;;;;;;;9.67;6.43;;;1.10;99.90;;;;;;5132553;27;20320;-72
2023/01/27 03:33:05;;;;;;;9.27;6.43;;;1.10;99.90;;;;;;5126562;27;20219;-72
2023/01/27 03:35:37;;;;;;;10.10;7.03;;;1.20;99.90;;;;;;5126034;28;20205;-72
2023/01/27 03:46:21;;;;;;;10.30;6.27;;;1.20;99.90;;;;;;5131063;27;20227;-72
2023/01/27 03:48:52;;;;;;;8.93;5.90;;;1.20;99.90;;;;;;5125770;28;20207;-72
2023/01/27 03:51:20;;;;;;;10.97;6.30;;;1.20;99.90;;;;;;5132347;27;20199;-72
2023/01/27 03:53:47;;;;;;;8.50;6.47;;;1.20;99.90;;;;;;5146940;27;20209;-72
2023/01/27 03:56:14;;;;;;;8.50;5.70;;;1.20;99.90;;;;;;5146554;27;20287;-72
2023/01/27 03:58:41;;;;;;;8.30;5.70;;;1.20;99.90;;;;;;5138318;27;20984;-72
2023/01/27 04:01:14;;;;;;;8.37;5.70;;;1.20;99.90;;;;;;5129000;27;20296;-72
2023/01/27 04:09:13;;;;;;;8.83;5.63;;;1.20;99.90;;;;;;5152271;27;20666;-71
2023/01/27 04:11:57;;;;;;;9.53;5.63;;;1.20;99.90;;;;;;5152467;27;20209;-71
2023/01/27 04:14:27;;;;;;;8.03;5.53;;;1.20;99.90;;;;;;5152236;27;20185;-72
2023/01/27 04:16:55;;;;;;;8.37;5.37;;;1.20;99.90;;;;;;5162337;27;20206;-72
2023/01/27 04:19:24;;;;;;;7.53;5.30;;;1.30;99.90;;;;;;5146892;27;20714;-72
2023/01/27 04:21:52;;;;;;;11.60;5.63;;;1.30;99.90;;;;;;5152219;27;20227;-72
2023/01/27 04:24:23;;;;;;;9.67;6.10;;;1.30;99.90;;;;;;5154034;27;20200;-71
2023/01/27 04:26:54;;;;;;;12.43;6.43;;;1.20;99.90;;;;;;5154038;27;20201;-71
2023/01/27 04:29:21;;;;;;;11.90;6.33;;;1.30;99.90;;;;;;5153858;27;20200;-72
2023/01/27 04:31:49;;;;;;;8.97;6.23;;;1.20;99.90;;;;;;5154229;27;20209;-72
2023/01/27 04:34:18;;;;;;;10.73;6.50;;;1.20;99.90;;;;;;5153772;27;20204;-71
2023/01/27 04:36:47;;;;;;;11.30;6.47;;;1.20;99.90;;;;;;5153857;27;20204;-72
2023/01/27 04:39:15;;;;;;;10.47;6.43;;;1.20;99.90;;;;;;5153468;27;20725;-72
2023/01/27 04:41:42;;;;;;;10.63;6.40;;;1.20;99.90;;;;;;5152734;27;20304;-72
2023/01/27 04:44:10;;;;;;;10.83;6.80;;;1.20;99.90;;;;;;5153218;27;20205;-72
2023/01/27 04:46:37;;;;;;;10.93;6.37;;;1.20;99.90;;;;;;5161450;27;20266;-72
2023/01/27 04:49:05;;;;;;;10.20;5.97;;;1.30;99.90;;;;;;5173275;27;20208;-71
2023/01/27 04:51:35;;;;;;;13.63;6.83;;;1.30;99.90;;;;;;5148930;27;20724;-72
2023/01/27 04:54:06;;;;;;;11.97;6.37;;;1.30;99.90;;;;;;5133167;27;20236;-72
2023/01/27 04:56:35;;;;;;;13.20;6.80;;;1.30;99.90;;;;;;5131935;27;20640;-72
2023/01/27 04:59:03;;;;;;;9.70;6.13;;;1.30;99.90;;;;;;5131907;27;20716;-72
2023/01/27 05:01:30;;;;;;;10.53;6.67;;;1.30;99.90;;;;;;5132081;27;20209;-73
2023/01/27 05:03:57;;;;;;;11.47;6.73;;;1.30;99.90;;;;;;5132249;27;20209;-72
2023/01/27 05:06:25;;;;;;;10.07;6.83;;;1.30;99.90;;;;;;5132266;27;20281;-73
2023/01/27 05:08:52;;;;;;;13.27;6.93;;;1.30;99.90;;;;;;5132394;27;20238;-72
2023/01/27 05:11:21;;;;;;;14.83;7.13;;;1.30;99.90;;;;;;5132657;27;20298;-71
2023/01/27 05:13:48;;;;;;;11.57;6.70;;;1.30;99.90;;;;;;5147769;27;20201;-72
2023/01/27 05:16:18;;;;;;;11.73;7.30;;;1.30;99.90;;;;;;5132528;27;20205;-72
2023/01/27 05:18:47;;;;;;;11.30;6.90;;;1.30;99.90;;;;;;5131802;27;20218;-73
2023/01/27 05:21:16;;;;;;;11.97;7.63;;;1.30;99.90;;;;;;5132059;27;20560;-72
2023/01/27 05:23:44;;;;;;;11.90;7.23;;;1.30;99.90;;;;;;5151947;27;20205;-73
2023/01/27 05:26:13;;;;;;;12.73;6.63;;;1.20;99.90;;;;;;5153043;27;20566;-72
2023/01/27 05:28:44;;;;;;;11.57;7.20;;;1.30;99.90;;;;;;5156269;27;20272;-73
2023/01/27 05:31:13;;;;;;;12.43;6.97;;;1.30;99.90;;;;;;5173949;27;20193;-72
2023/01/27 05:33:41;;;;;;;9.63;6.17;;;1.30;99.90;;;;;;5173421;27;20212;-72
2023/01/27 05:36:11;;;;;;;10.17;6.27;;;1.30;99.90;;;;;;5132133;27;20232;-72
2023/01/27 05:38:38;;;;;;;10.73;6.30;;;1.30;99.90;;;;;;5132271;27;20239;-72
2023/01/27 05:41:07;;;;;;;10.37;6.10;;;1.30;99.90;;;;;;5131504;27;20237;-72
2023/01/27 05:43:36;;;;;;;10.20;6.47;;;1.40;99.90;;;;;;5131591;27;20310;-72
2023/01/27 05:46:07;;;;;;;9.53;6.13;;;1.30;99.90;;;;;;5135964;27;20267;-72
2023/01/27 05:48:35;;;;;;;11.67;7.07;;;1.30;99.90;;;;;;5144642;27;20250;-72
2023/01/27 05:51:02;;;;;;;9.80;6.43;;;1.30;99.90;;;;;;5131311;27;20826;-72
2023/01/27 05:53:29;;;;;;;10.17;6.60;;;1.30;99.90;;;;;;5131816;27;20205;-72
2023/01/27 05:55:57;;;;;;;9.83;5.97;;;1.30;99.90;;;;;;5152180;27;20220;-72
2023/01/27 05:58:24;;;;;;;11.17;6.77;;;1.30;99.90;;;;;;5152237;27;20312;-72
2023/01/27 06:00:52;;;;;;;9.60;6.50;;;1.30;99.90;;;;;;5152372;27;20209;-71
2023/01/27 06:03:21;;;;;;;11.00;7.00;;;1.30;99.90;;;;;;5150963;27;20257;-72
2023/01/27 06:05:53;;;;;;;12.13;7.13;;;1.30;99.90;;;;;;5150095;27;20200;-72
2023/01/27 06:08:22;;;;;;;13.93;7.10;;;1.30;99.90;;;;;;5152152;27;20213;-73
2023/01/27 06:10:49;;;;;;;12.67;8.10;;;1.40;99.90;;;;;;5142053;27;20209;-73
2023/01/27 06:13:17;;;;;;;13.23;7.23;;;1.30;99.90;;;;;;5131114;27;20614;-72
2023/01/27 06:15:47;;;;;;;14.47;7.40;;;1.30;99.90;;;;;;5132259;27;20205;-72
2023/01/27 06:18:16;;;;;;;12.33;6.30;;;1.30;99.90;;;;;;5168171;27;20551;-72
2023/01/27 06:20:44;;;;;;;11.77;6.50;;;1.30;99.90;;;;;;5149736;27;20209;-72
2023/01/27 06:23:13;;;;;;;8.83;5.80;;;1.30;99.90;;;;;;5149272;27;20327;-72
2023/01/27 06:25:42;;;;;;;10.20;5.50;;;1.40;99.90;;;;;;5149190;27;20240;-72
2023/01/27 06:28:09;;;;;;;10.10;6.30;;;1.40;99.90;;;;;;5149621;27;20236;-72
2023/01/27 06:30:38;;;;;;;10.53;6.00;;;1.40;99.90;;;;;;5143927;27;20228;-72
2023/01/27 06:33:05;;;;;;;10.50;6.40;;;1.40;99.90;;;;;;5128736;27;20681;-72
2023/01/27 06:35:34;;;;;;;10.23;5.63;;;1.50;99.90;;;;;;5127851;27;20300;-72
2023/01/27 06:38:04;;;;;;;8.27;5.47;;;1.50;99.90;;;;;;5128681;27;20301;-72
2023/01/27 06:40:32;;;;;;;9.27;5.40;;;1.50;99.90;;;;;;5128731;27;20331;-72
2023/01/27 06:42:59;;;;;;;7.23;5.30;;;1.50;99.90;;;;;;5136628;27;20193;-72
2023/01/27 06:45:26;;;;;;;8.37;5.57;;;1.50;99.90;;;;;;5149343;27;20316;-72
2023/01/27 06:47:58;;;;;;;7.93;5.73;;;1.40;99.90;;;;;;5168271;27;20207;-72
2023/01/27 06:50:26;;;;;;;8.37;5.70;;;1.50;99.90;;;;;;5169746;27;20293;-72
2023/01/27 06:52:58;;;;;;;11.17;5.17;;;1.50;99.90;;;;;;5170478;27;20200;-72
2023/01/27 06:55:27;;;;;;;9.87;5.10;;;1.50;99.90;;;;;;5167863;27;20784;-72
2023/01/27 06:57:54;;;;;;;17.27;8.87;;;1.40;99.90;;;;;;5149136;27;20230;-72
2023/01/27 07:00:21;;;;;;;10.27;5.70;;;1.50;99.90;;;;;;5149447;27;20693;-72
2023/01/27 07:02:48;;;;;;;8.70;5.23;;;1.50;99.90;;;;;;5148957;27;20211;-72
2023/01/27 07:05:15;;;;;;;8.20;5.90;;;1.50;99.90;;;;;;5136229;27;20293;-72
2023/01/27 07:07:42;;;;;;;10.53;5.83;;;1.50;99.90;;;;;;5127986;27;20291;-72
2023/01/27 07:10:10;;;;;;;8.37;4.90;;;1.50;99.90;;;;;;5128195;28;20674;-72
2023/01/27 07:12:38;;;;;;;8.50;5.60;;;1.50;99.90;;;;;;5128465;27;20284;-72
2023/01/27 07:15:07;;;;;;;9.60;5.97;;;1.50;99.90;;;;;;5128423;27;20297;-72
2023/01/27 07:17:34;;;;;;;8.10;5.80;;;1.50;99.90;;;;;;5159940;27;20685;-72
2023/01/27 07:20:01;;;;;;;9.60;5.93;;;1.50;99.90;;;;;;5150019;27;20319;-71
2023/01/27 07:22:28;;;;;;;10.87;6.80;;;1.60;99.90;;;;;;5148387;27;20722;-72
2023/01/27 07:24:55;;;;;;;9.50;6.73;;;1.60;99.90;;;;;;5149052;27;20287;-72
2023/01/27 07:27:22;;;;;;;9.07;5.67;;;1.60;99.90;;;;;;5138813;27;20300;-72
2023/01/27 07:29:50;;;;;;;8.70;5.60;;;1.60;99.90;;;;;;5128406;28;20282;-72
2023/01/27 07:32:17;;;;;;;10.20;5.37;;;1.70;99.90;;;;;;5128396;28;20254;-72
2023/01/27 07:34:44;;;;;;;8.93;6.00;;;1.60;99.90;;;;;;5127848;27;20967;-72
2023/01/27 07:37:11;;;;;;;8.27;5.70;;;1.60;99.90;;;;;;5132479;27;20240;-72
2023/01/27 07:39:38;;;;;;;11.57;6.20;;;1.60;99.90;;;;;;5143118;27;20228;-72
2023/01/27 07:42:06;;;;;;;9.03;5.17;;;1.60;99.90;;;;;;5153012;27;20311;-72
2023/01/27 07:44:33;;;;;;;9.23;5.87;;;1.70;99.90;;;;;;5152540;27;20208;-72
2023/01/27 07:47:01;;;;;;;8.97;5.23;;;1.70;99.90;;;;;;5164081;27;20236;-72
2023/01/27 07:49:28;;;;;;;5.97;5.17;;;1.70;99.90;;;;;;5173170;27;20200;-72
2023/01/27 07:51:55;;;;;;;7.03;4.80;;;1.70;99.90;;;;;;5173895;27;20291;-72
2023/01/27 07:54:22;;;;;;;8.33;5.03;;;1.70;99.90;;;;;;5173628;27;20205;-72
2023/01/27 07:56:48;;;;;;;6.93;4.77;;;1.80;99.90;;;;;;5159294;27;20231;-73
2023/01/27 07:59:15;;;;;;;9.43;4.97;;;1.80;99.90;;;;;;5152261;27;20323;-72
2023/01/27 08:01:42;;;;;;;6.40;5.00;;;1.80;99.90;;;;;;5137667;27;20270;-72
2023/01/27 08:04:10;;;;;;;7.80;5.27;;;1.80;99.90;;;;;;5131329;27;20670;-72
2023/01/27 08:06:39;;;;;;;9.73;5.47;;;1.90;99.90;;;;;;5131499;27;20237;-72
2023/01/27 08:09:06;;;;;;;8.27;5.80;;;1.90;99.90;;;;;;5131791;27;20210;-72
2023/01/27 08:11:33;;;;;;;8.83;5.67;;;1.90;99.90;;;;;;5131712;27;20258;-72
2023/01/27 08:14:00;;;;;;;8.80;5.67;;;1.90;99.90;;;;;;5131291;27;20743;-72
2023/01/27 08:16:27;;;;;;;8.17;5.50;;;1.90;99.90;;;;;;5144672;27;20214;-72
2023/01/27 08:18:55;;;;;;;8.80;6.20;;;1.90;99.90;;;;;;5146561;27;20231;-72
2023/01/27 08:21:24;;;;;;;10.13;5.83;;;2.00;99.90;;;;;;5131347;27;20295;-72
2023/01/27 08:23:51;;;;;;;11.03;5.90;;;2.00;99.90;;;;;;5143053;27;20215;-72
2023/01/27 08:26:17;;;;;;;9.63;5.53;;;2.00;99.90;;;;;;5151794;27;20304;-72
2023/01/27 08:28:44;;;;;;;10.70;6.10;;;2.00;99.90;;;;;;5151725;27;20252;-72
2023/01/27 08:31:13;;;;;;;11.40;6.40;;;2.00;99.90;;;;;;5152057;27;20295;-72
2023/01/27 08:33:41;;;;;;;12.93;6.40;;;2.10;99.90;;;;;;5151580;27;20303;-72
2023/01/27 08:36:11;;;;;;;6.43;5.50;;;2.10;99.90;;;;;;5151841;27;20296;-72
2023/01/27 08:38:39;;;;;;;11.93;6.13;;;2.10;99.90;;;;;;5151804;27;20257;-72
2023/01/27 08:41:08;;;;;;;9.13;6.07;;;2.10;99.90;;;;;;5151680;27;20320;-72
2023/01/27 08:43:36;;;;;;;7.63;5.90;;;2.10;99.90;;;;;;5152120;27;20204;-72
2023/01/27 08:46:03;;;;;;;8.47;6.50;;;2.20;99.90;;;;;;5151288;27;20235;-72
2023/01/27 08:48:31;;;;;;;7.23;6.20;;;2.20;99.90;;;;;;5151033;27;20280;-72
2023/01/27 08:50:58;;;;;;;8.50;6.10;;;2.20;99.90;;;;;;5151674;27;20210;-72
2023/01/27 08:53:27;;;;;;;8.67;6.37;;;2.20;99.90;;;;;;5151518;27;20315;-72
2023/01/27 08:55:57;;;;;;;8.63;5.73;;;2.30;99.90;;;;;;5150995;27;20228;-72
2023/01/27 08:58:24;;;;;;;8.17;5.77;;;2.30;99.90;;;;;;5150704;27;20260;-72
2023/01/27 09:00:51;;;;;;;9.40;5.80;;;2.30;99.90;;;;;;5151273;27;20710;-72
2023/01/27 09:03:18;;;;;;;8.30;5.70;;;2.30;99.90;;;;;;5150964;27;20296;-72
2023/01/27 09:05:46;;;;;;;9.97;6.17;;;2.30;99.90;;;;;;5151366;27;20309;-72
2023/01/27 09:08:14;;;;;;;10.27;5.97;;;2.30;99.90;;;;;;5151173;27;20297;-72
2023/01/27 09:10:41;;;;;;;7.70;5.30;;;2.30;99.90;;;;;;5150729;27;20208;-72
2023/01/27 09:13:10;;;;;;;9.33;5.63;;;2.40;99.90;;;;;;5151024;27;20303;-72
2023/01/27 09:15:37;;;;;;;8.03;6.03;;;2.40;99.90;;;;;;5150810;27;20687;-72
2023/01/27 09:18:05;;;;;;;6.87;5.73;;;2.40;99.90;;;;;;5168260;27;20244;-71
2023/01/27 09:20:33;;;;;;;7.73;5.73;;;2.40;99.90;;;;;;5150484;27;20308;-72
2023/01/27 09:23:00;;;;;;;8.03;5.27;;;2.40;99.90;;;;;;5150836;27;20201;-72
2023/01/27 09:25:27;;;;;;;8.80;5.70;;;2.40;99.90;;;;;;5150650;27;20216;-71
2023/01/27 09:27:55;;;;;;;10.13;5.50;;;2.50;99.90;;;;;;5150928;27;20211;-72
2023/01/27 09:30:25;;;;;;;6.17;5.20;;;2.50;99.90;;;;;;5150914;27;20201;-72
2023/01/27 09:32:52;;;;;;;11.30;5.53;;;2.50;99.90;;;;;;5150183;27;20296;-72
2023/01/27 09:35:19;;;;;;;8.63;5.80;;;2.50;99.90;;;;;;5150740;27;20292;-72
2023/01/27 09:37:51;;;;;;;7.80;5.90;;;2.50;99.90;;;;;;5133356;27;20303;-71
2023/01/27 09:40:30;;;;;;;10.57;5.33;;;2.50;99.90;;;;;;5129960;27;20301;-72
2023/01/27 09:43:19;;;;;;;7.83;5.20;;;2.60;99.90;;;;;;5129889;27;20190;-72
2023/01/27 09:46:03;;;;;;;7.17;5.20;;;2.60;99.90;;;;;;5131468;27;21012;-72
2023/01/27 09:48:46;;;;;;;8.70;5.20;;;2.60;99.90;;;;;;5164273;27;20670;-72
2023/01/27 09:51:22;;;;;;;6.67;5.40;;;2.60;99.90;;;;;;5150220;27;20280;-72
2023/01/27 09:54:12;;;;;;;7.10;4.90;;;2.70;99.90;;;;;;5149986;27;20734;-72
2023/01/27 09:56:49;;;;;;;5.20;4.70;;;2.70;99.90;;;;;;5132279;27;20292;-71
2023/01/27 09:59:27;;;;;;;4.97;4.47;;;2.70;99.90;;;;;;5128622;27;20331;-71
2023/01/27 10:02:07;;;;;;;7.53;4.83;;;2.70;99.90;;;;;;5129830;27;20250;-71
2023/01/27 10:05:06;;;;;;;7.57;5.03;;;2.70;99.90;;;;;;5129115;27;20869;-72
2023/01/27 10:08:00;;;;;;;8.87;4.90;;;2.70;99.90;;;;;;5129378;27;20304;-72
2023/01/27 10:10:56;;;;;;;6.13;4.37;;;2.80;99.90;;;;;;5136734;27;20200;-71
2023/01/27 10:13:32;;;;;;;6.93;4.33;;;2.80;99.90;;;;;;5150213;27;20229;-71
2023/01/27 10:16:15;;;;;;;7.57;4.73;;;2.80;99.90;;;;;;5141434;27;20240;-71
2023/01/27 10:18:57;;;;;;;5.87;4.23;;;2.80;99.90;;;;;;5137256;27;20207;-71
2023/01/27 10:21:35;;;;;;;5.27;3.93;;;2.80;99.90;;;;;;5149470;27;20712;-71
2023/01/27 10:24:08;;;;;;;5.30;3.37;;;2.80;99.90;;;;;;5129439;27;20241;-71
2023/01/27 10:26:40;;;;;;;4.30;3.83;;;2.80;99.90;;;;;;5129342;27;20277;-71
2023/01/27 10:29:12;;;;;;;4.97;3.20;;;2.90;99.90;;;;;;5146271;27;20638;-71
2023/01/27 10:31:49;;;;;;;3.03;2.83;;;2.90;99.90;;;;;;5149486;27;20288;-71
2023/01/27 10:34:27;;;;;;;4.30;3.67;;;2.90;99.90;;;;;;5149260;27;20192;-71
2023/01/27 10:37:04;;;;;;;5.23;3.37;;;2.90;99.90;;;;;;5149758;27;20193;-71
2023/01/27 10:39:42;;;;;;;5.70;3.10;;;2.90;99.90;;;;;;5149285;27;20271;-71
2023/01/27 10:42:17;;;;;;;3.80;3.40;;;2.90;99.90;;;;;;5149860;27;20273;-72
2023/01/27 10:44:58;;;;;;;4.80;3.40;;;2.90;99.90;;;;;;5149306;27;20260;-71
2023/01/27 10:47:37;;;;;;;6.20;3.80;;;2.90;99.90;;;;;;5164183;27;20210;-71
2023/01/27 10:50:11;;;;;;;4.30;3.20;;;3.00;99.90;;;;;;5150064;27;20287;-71
2023/01/27 10:52:42;;;;;;;3.70;3.27;;;3.00;99.90;;;;;;5133783;27;20208;-71
2023/01/27 10:55:18;;;;;;;6.57;3.80;;;3.00;99.90;;;;;;5128533;27;20285;-71
2023/01/27 10:57:50;;;;;;;3.60;3.30;;;3.00;99.90;;;;;;5128082;27;20232;-71
2023/01/27 11:00:28;;;;;;;5.07;3.53;;;3.00;99.90;;;;;;5128581;28;20348;-71
2023/01/27 11:03:02;;;;;;;3.77;3.10;;;2.90;99.90;;;;;;5128660;28;20276;-71
2023/01/27 11:05:36;;;;;;;7.90;3.30;;;3.00;99.90;;;;;;5128492;28;20224;-71
2023/01/27 11:08:08;;;;;;;4.00;3.00;;;3.00;99.90;;;;;;5147884;27;20283;-71
2023/01/27 11:11:42;;;;;;;3.63;2.90;;;3.00;99.90;;;;;;5150295;27;20192;-71
2023/01/27 11:13:28;;;;;;;3.57;2.83;;;3.00;99.90;;;;;;5153061;27;20580;-72
2023/01/27 11:15:56;;;;;;;6.87;3.37;;;3.10;99.90;;;;;;5155283;27;20246;-71
2023/01/27 11:18:27;;;;;;;3.57;3.27;;;3.10;99.90;;;;;;5174002;27;20226;-71
2023/01/27 11:21:00;;;;;;;5.40;3.00;;;3.10;99.90;;;;;;5174170;27;20247;-71
2023/01/27 11:23:29;;;;;;;3.50;3.10;;;3.10;99.90;;;;;;5156226;27;20350;-71
2023/01/27 11:26:06;;;;;;;3.70;3.40;;;3.10;99.90;;;;;;5153256;27;20233;-71
2023/01/27 11:28:42;;;;;;;4.77;3.40;;;3.10;99.90;;;;;;5153092;27;20197;-71
2023/01/27 11:31:19;;;;;;;3.87;3.43;;;3.20;99.90;;;;;;5153472;27;20282;-71
2023/01/27 11:33:56;;;;;;;5.00;3.70;;;3.20;99.90;;;;;;5137297;27;20738;-71
2023/01/27 11:36:25;;;;;;;5.77;3.57;;;3.30;99.90;;;;;;5132240;27;20189;-71
2023/01/27 11:38:53;;;;;;;4.37;3.40;;;3.30;99.90;;;;;;5132047;27;20204;-71
2023/01/27 11:41:20;;;;;;;3.80;3.03;;;3.40;99.90;;;;;;5132338;27;20323;-71
2023/01/27 11:43:47;;;;;;;4.30;3.17;;;3.40;99.90;;;;;;5131822;27;20771;-71
2023/01/27 11:46:18;;;;;;;4.40;3.63;;;3.40;99.90;;;;;;5141522;27;20322;-71
2023/01/27 11:48:48;;;;;;;3.17;2.87;;;3.40;99.90;;;;;;5144553;27;20387;-71
2023/01/27 11:51:20;;;;;;;3.77;3.33;;;3.40;99.90;;;;;;5131763;27;20293;-71
2023/01/27 11:53:55;;;;;;;5.50;3.43;;;3.40;99.90;;;;;;5132017;27;20200;-71
2023/01/27 11:56:23;;;;;;;3.30;3.00;;;3.30;99.90;;;;;;5131891;27;20246;-71
2023/01/27 11:58:56;;;;;;;4.47;3.33;;;3.30;99.90;;;;;;5131251;27;20890;-71
2023/01/27 12:01:34;;;;;;;4.00;3.43;;;3.30;99.90;;;;;;5131471;27;20264;-71
2023/01/27 12:04:06;;;;;;;5.80;3.40;;;3.30;99.90;;;;;;5148481;27;20277;-71
2023/01/27 12:06:40;;;;;;;4.20;3.77;;;3.30;99.90;;;;;;5152344;27;20224;-71
2023/01/27 12:09:33;;;;;;;4.33;3.77;;;3.30;99.90;;;;;;5137951;27;20679;-71
2023/01/27 12:12:21;;;;;;;4.83;3.93;;;3.30;99.90;;;;;;5131804;27;20197;-71
2023/01/27 12:14:49;;;;;;;6.07;3.87;;;3.40;99.90;;;;;;5131863;27;20233;-71
2023/01/27 12:17:24;;;;;;;5.77;4.40;;;3.40;99.90;;;;;;5131448;27;20237;-71
2023/01/27 12:19:53;;;;;;;5.77;4.93;;;3.40;99.90;;;;;;5131190;27;20631;-71
2023/01/27 12:22:26;;;;;;;9.37;6.10;;;3.30;99.90;;;;;;5138812;27;20299;-71
2023/01/27 12:25:00;;;;;;;9.13;5.80;;;3.30;99.90;;;;;;5151727;27;20728;-71
2023/01/27 12:27:30;;;;;;;9.30;5.93;;;3.30;99.90;;;;;;5152267;27;20666;-71
2023/01/27 12:30:00;;;;;;;8.63;6.23;;;3.30;99.90;;;;;;5151812;27;20205;-71
2023/01/27 12:32:37;;;;;;;7.30;5.67;;;3.30;99.90;;;;;;5151593;27;20307;-71
2023/01/27 12:35:05;;;;;;;9.03;5.97;;;3.30;99.90;;;;;;5151748;27;20228;-71
2023/01/27 12:37:36;;;;;;;11.03;6.20;;;3.30;99.90;;;;;;5151907;27;20350;-71
2023/01/27 12:40:06;;;;;;;9.57;5.87;;;3.30;99.90;;;;;;5151913;27;20271;-71
2023/01/27 12:42:38;;;;;;;8.40;5.77;;;3.20;99.90;;;;;;5151261;27;20762;-71
2023/01/27 12:45:24;;;;;;;11.33;5.67;;;3.20;99.90;;;;;;5151243;27;20640;-71
2023/01/27 12:48:14;;;;;;;6.27;5.00;;;3.20;99.90;;;;;;5169402;27;20234;-71
2023/01/27 12:50:43;;;;;;;5.97;4.73;;;3.20;99.90;;;;;;5151556;27;20204;-71
2023/01/27 12:53:12;;;;;;;12.20;4.93;;;3.20;99.90;;;;;;5151412;27;20234;-71
2023/01/27 12:55:44;;;;;;;7.07;4.73;;;3.20;99.90;;;;;;5151297;27;20693;-71
2023/01/27 12:58:30;;;;;;;8.77;4.83;;;3.20;99.90;;;;;;5151102;27;20741;-71
2023/01/27 13:00:59;;;;;;;7.53;5.13;;;3.20;99.90;;;;;;5130340;27;20221;-71
2023/01/27 13:03:28;;;;;;;6.30;4.87;;;3.20;99.90;;;;;;5130188;27;20201;-71
2023/01/27 13:05:58;;;;;;;6.40;5.00;;;3.20;99.90;;;;;;5130747;27;20296;-71
2023/01/27 13:08:28;;;;;;;6.80;5.20;;;3.20;99.90;;;;;;5130228;27;20303;-71
2023/01/27 13:10:59;;;;;;;6.33;5.10;;;3.20;99.90;;;;;;5130566;27;20233;-71
2023/01/27 13:13:30;;;;;;;8.53;4.80;;;3.20;99.90;;;;;;5130167;27;20280;-71
2023/01/27 13:16:04;;;;;;;7.17;4.77;;;3.20;99.90;;;;;;5134250;27;20202;-71
2023/01/27 13:18:34;;;;;;;5.37;4.30;;;3.20;99.90;;;;;;5144332;27;20197;-71
2023/01/27 13:21:10;;;;;;;5.93;4.40;;;3.20;99.90;;;;;;5129893;27;20237;-71
2023/01/27 13:23:40;;;;;;;5.37;4.50;;;3.20;99.90;;;;;;5148744;27;20706;-71
2023/01/27 13:26:16;;;;;;;6.90;4.47;;;3.20;99.90;;;;;;5150896;27;20657;-71
2023/01/27 13:28:49;;;;;;;6.50;4.53;;;3.20;99.90;;;;;;5150548;27;20280;-71
2023/01/27 13:31:22;;;;;;;7.03;4.27;;;3.20;99.90;;;;;;5150359;27;20315;-71
2023/01/27 13:33:54;;;;;;;4.47;4.07;;;3.20;99.90;;;;;;5149474;27;20185;-71
2023/01/27 13:36:29;;;;;;;5.23;4.07;;;3.20;99.90;;;;;;5150484;27;20288;-71